createdAt,value
2022-12-23T00:01:24.058Z,100340.91
2022-12-23T00:03:51.203Z,100342.81
2022-12-23T00:06:18.860Z,100346.88
2022-12-23T00:08:46.552Z,100343.63
2022-12-23T00:11:19.077Z,100339.81
2022-12-23T00:14:04.972Z,100341.44
2022-12-23T00:16:31.737Z,100345.78
2022-12-23T00:19:00.404Z,100354.97
2022-12-23T00:21:27.975Z,100359.31
2022-12-23T00:23:54.336Z,100367.41
2022-12-23T00:26:23.670Z,100372.84
2022-12-23T00:28:52.562Z,100378.00
2022-12-23T00:31:19.931Z,100371.75
2022-12-23T00:33:53.476Z,100372.56
2022-12-23T00:36:26.970Z,100376.06
2022-12-23T00:39:13.183Z,100376.38
2022-12-23T00:41:57.997Z,100386.38
2022-12-23T00:44:24.833Z,100383.94
2022-12-23T00:46:53.437Z,100384.19
2022-12-23T00:49:39.197Z,100376.63
2022-12-23T00:52:08.675Z,100379.88
2022-12-23T00:54:39.541Z,100378.25
2022-12-23T00:57:07.018Z,100386.66
2022-12-23T00:59:34.704Z,100385.81
2022-12-23T01:02:21.352Z,100395.03
2022-12-23T01:05:13.281Z,100400.44
2022-12-23T01:07:39.670Z,100398.56
2022-12-23T01:10:07.548Z,100404.22
2022-12-23T01:12:33.924Z,100403.41
2022-12-23T01:15:00.314Z,100402.59
2022-12-23T01:17:42.866Z,100397.19
2022-12-23T01:20:09.653Z,100412.63
2022-12-23T01:22:37.124Z,100406.66
2022-12-23T01:25:04.119Z,100415.56
2022-12-23T01:27:30.656Z,100415.56
2022-12-23T01:29:58.106Z,100426.41
2022-12-23T01:32:29.492Z,100431.00
2022-12-23T01:34:56.918Z,100427.47
2022-12-23T01:37:23.522Z,100429.38
2022-12-23T01:39:50.076Z,100435.59
2022-12-23T01:42:44.813Z,100438.28
2022-12-23T01:45:27.874Z,100428.03
2022-12-23T01:47:59.409Z,100439.66
2022-12-23T01:50:32.756Z,100440.75
2022-12-23T01:53:15.434Z,100444.53
2022-12-23T01:55:48.880Z,100449.13
2022-12-23T01:58:23.078Z,100449.13
2022-12-23T02:01:07.922Z,100459.97
2022-12-23T02:03:42.979Z,100467.00
2022-12-23T02:07:01.100Z,100469.69
2022-12-23T02:09:34.679Z,100472.66
2022-12-23T02:12:11.993Z,100472.94
2022-12-23T02:15:11.706Z,100483.47
2022-12-23T02:17:40.916Z,100480.78
2022-12-23T02:20:44.864Z,100485.38
2022-12-23T02:23:37.672Z,100485.38
2022-12-23T02:26:24.783Z,100487.78
2022-12-23T02:29:05.508Z,100492.13
2022-12-23T02:32:09.513Z,100504.56
2022-12-23T02:34:59.463Z,100509.72
2022-12-23T02:37:53.120Z,100509.72
2022-12-23T02:40:35.785Z,100516.44
2022-12-23T02:43:33.309Z,100505.91
2022-12-23T02:46:11.314Z,100517.81
2022-12-23T02:48:49.223Z,100516.19
2022-12-23T02:51:16.866Z,100520.75
2022-12-23T02:53:50.946Z,100524.81
2022-12-23T02:56:19.647Z,100521.28
2022-12-23T02:59:28.700Z,100528.06
2022-12-23T03:01:55.872Z,100534.00
2022-12-23T03:04:29.642Z,100536.16
2022-12-23T03:07:07.384Z,100538.31
2022-12-23T03:09:52.114Z,100551.81
2022-12-23T03:12:56.055Z,100545.88
2022-12-23T03:15:38.574Z,100542.63
2022-12-23T03:18:50.876Z,100543.16
2022-12-23T03:21:33.424Z,100539.88
2022-12-23T03:24:20.666Z,100536.63
2022-12-23T03:27:00.598Z,100537.16
2022-12-23T03:29:37.689Z,100530.13
2022-12-23T03:32:06.529Z,100525.25
2022-12-23T03:34:40.376Z,100530.66
2022-12-23T03:37:09.871Z,100530.66
2022-12-23T03:39:45.538Z,100531.47
2022-12-23T03:42:18.510Z,100536.06
2022-12-23T03:45:28.025Z,100539.84
2022-12-23T03:47:48.382Z,100545.25
2022-12-23T03:50:19.468Z,100542.00
2022-12-23T03:53:10.368Z,100540.38
2022-12-23T03:55:44.719Z,100538.72
2022-12-23T03:58:35.691Z,100544.13
2022-12-23T04:01:08.079Z,100539.53
2022-12-23T04:03:47.938Z,100546.81
2022-12-23T04:06:19.775Z,100551.19
2022-12-23T04:08:47.985Z,100562.78
2022-12-23T04:11:14.690Z,100561.72
2022-12-23T04:13:42.220Z,100559.00
2022-12-23T04:16:10.287Z,100576.06
2022-12-23T04:18:41.822Z,100578.75
2022-12-23T04:21:08.178Z,100585.25
2022-12-23T04:23:34.543Z,100582.53
2022-12-23T04:26:03.173Z,100585.25
2022-12-23T04:28:29.547Z,100602.25
2022-12-23T04:30:58.059Z,100595.22
2022-12-23T04:33:33.863Z,100594.41
2022-12-23T04:36:00.907Z,100598.75
2022-12-23T04:38:31.421Z,100596.06
2022-12-23T04:40:57.817Z,100592.28
2022-12-23T04:43:24.215Z,100583.09
2022-12-23T04:45:52.269Z,100585.78
2022-12-23T04:48:18.918Z,100588.50
2022-12-23T04:50:45.430Z,100582.25
2022-12-23T04:53:11.866Z,100583.09
2022-12-23T04:55:39.522Z,100576.06
2022-12-23T04:58:05.900Z,100572.28
2022-12-23T05:00:38.937Z,100567.66
2022-12-23T05:03:07.397Z,100576.84
2022-12-23T05:05:35.926Z,100573.34
2022-12-23T05:08:05.361Z,100579.31
2022-12-23T05:10:33.953Z,100576.06
2022-12-23T05:13:00.359Z,100574.97
2022-12-23T05:15:26.821Z,100576.84
2022-12-23T05:17:53.197Z,100579.84
2022-12-23T05:20:19.594Z,100576.06
2022-12-23T05:22:48.019Z,100579.56
2022-12-23T05:25:14.428Z,100582.25
2022-12-23T05:27:40.834Z,100598.22
2022-12-23T05:30:08.920Z,100600.94
2022-12-23T05:32:35.972Z,100600.09
2022-12-23T05:35:02.516Z,100606.34
2022-12-23T05:37:30.991Z,100606.59
2022-12-23T05:39:57.395Z,100610.13
2022-12-23T05:42:23.995Z,100620.94
2022-12-23T05:44:55.559Z,100618.22
2022-12-23T05:47:21.967Z,100628.22
2022-12-23T05:49:48.391Z,100626.34
2022-12-23T05:52:14.904Z,100622.81
2022-12-23T05:54:41.748Z,100618.22
2022-12-23T05:57:08.275Z,100620.09
2022-12-23T05:59:34.716Z,100621.72
2022-12-23T06:02:01.300Z,100620.09
2022-12-23T06:04:28.077Z,100619.31
2022-12-23T06:06:54.709Z,100613.06
2022-12-23T06:09:21.146Z,100616.03
2022-12-23T06:11:52.694Z,100610.63
2022-12-23T06:14:23.838Z,100610.63
2022-12-23T06:16:53.393Z,100615.22
2022-12-23T06:19:19.906Z,100617.91
2022-12-23T06:21:46.286Z,100608.97
2022-12-23T06:24:12.738Z,100594.91
2022-12-23T06:26:46.281Z,100593.28
2022-12-23T06:29:13.695Z,100591.41
2022-12-23T06:31:40.095Z,100597.06
2022-12-23T06:34:06.586Z,100591.66
2022-12-23T06:36:32.981Z,100591.66
2022-12-23T06:38:59.383Z,100596.25
2022-12-23T06:41:25.891Z,100603.53
2022-12-23T06:44:06.771Z,100600.84
2022-12-23T06:46:35.272Z,100611.66
2022-12-23T06:49:04.025Z,100610.03
2022-12-23T06:51:34.137Z,100617.56
2022-12-23T06:54:00.576Z,100624.59
2022-12-23T06:56:43.344Z,100628.38
2022-12-23T06:59:27.893Z,100633.78
2022-12-23T07:02:23.536Z,100632.72
2022-12-23T07:04:55.217Z,100630.84
2022-12-23T07:07:53.781Z,100633.28
2022-12-23T07:10:20.144Z,100645.16
2022-12-23T07:12:56.718Z,100642.44
2022-12-23T07:15:25.237Z,100638.94
2022-12-23T07:17:51.594Z,100658.66
2022-12-23T07:20:43.004Z,100650.56
2022-12-23T07:23:17.489Z,100664.06
2022-12-23T07:25:44.316Z,100664.06
2022-12-23T07:28:10.693Z,100660.81
2022-12-23T07:30:37.097Z,100660.81
2022-12-23T07:33:10.527Z,100657.03
2022-12-23T07:35:37.030Z,100666.78
2022-12-23T07:38:09.020Z,100659.75
2022-12-23T07:40:39.489Z,100661.38
2022-12-23T07:43:06.042Z,100655.97
2022-12-23T07:45:35.595Z,100647.84
2022-12-23T07:48:04.046Z,100642.44
2022-12-23T07:50:42.822Z,100638.69
2022-12-23T07:53:09.264Z,100640.81
2022-12-23T07:55:36.173Z,100637.88
2022-12-23T07:58:02.732Z,100621.91
2022-12-23T08:00:29.156Z,100627.88
2022-12-23T08:02:55.600Z,100640.31
2022-12-23T08:05:22.283Z,100644.09
2022-12-23T08:07:50.137Z,100644.09
2022-12-23T08:10:16.806Z,100637.88
2022-12-23T08:12:43.306Z,100630.84
2022-12-23T08:15:09.823Z,100626.25
2022-12-23T08:17:36.182Z,100626.25
2022-12-23T08:20:02.660Z,100635.41
2022-12-23T08:22:31.318Z,100631.91
2022-12-23T08:24:59.328Z,100626.25
2022-12-23T08:27:25.857Z,100619.19
2022-12-23T08:29:52.349Z,100637.03
2022-12-23T08:32:18.705Z,100625.44
2022-12-23T08:34:45.088Z,100620.84
2022-12-23T08:37:11.465Z,100614.34
2022-12-23T08:39:38.022Z,100606.25
2022-12-23T08:42:04.564Z,100598.69
2022-12-23T08:44:32.546Z,100597.06
2022-12-23T08:46:58.977Z,100604.09
2022-12-23T08:49:25.352Z,100613.28
2022-12-23T08:51:51.883Z,100604.09
2022-12-23T08:54:20.267Z,100593.28
2022-12-23T08:56:46.690Z,100588.72
2022-12-23T08:59:19.139Z,100590.34
2022-12-23T09:01:47.155Z,100584.09
2022-12-23T09:04:13.698Z,100582.22
2022-12-23T09:06:41.816Z,100578.22
2022-12-23T09:09:09.970Z,100569.50
2022-12-23T09:11:36.513Z,100577.38
2022-12-23T09:14:03.929Z,100567.63
2022-12-23T09:16:31.325Z,100569.50
2022-12-23T09:18:57.753Z,100560.34
2022-12-23T09:21:24.593Z,100565.75
2022-12-23T09:23:51.424Z,100562.78
2022-12-23T09:26:29.283Z,100563.63
2022-12-23T09:28:56.255Z,100561.47
2022-12-23T09:31:23.697Z,100559.84
2022-12-23T09:33:52.243Z,100552.53
2022-12-23T09:36:19.849Z,100557.69
2022-12-23T09:38:46.236Z,100563.09
2022-12-23T09:41:29.558Z,100564.72
2022-12-23T09:44:38.715Z,100570.13
2022-12-23T09:47:11.696Z,100554.97
2022-12-23T09:49:47.358Z,100560.63
2022-12-23T09:52:22.449Z,100551.44
2022-12-23T09:54:52.437Z,100544.72
2022-12-23T09:57:32.835Z,100534.16
2022-12-23T10:00:02.141Z,100524.19
2022-12-23T10:02:46.779Z,100525.81
2022-12-23T10:05:17.075Z,100512.84
2022-12-23T10:08:12.756Z,100504.72
2022-12-23T10:10:50.084Z,100494.47
2022-12-23T10:13:39.135Z,100493.38
2022-12-23T10:16:14.895Z,100482.56
2022-12-23T10:18:49.369Z,100482.56
2022-12-23T10:22:08.794Z,100483.66
2022-12-23T10:24:47.776Z,100484.19
2022-12-23T10:27:28.018Z,100476.63
2022-12-23T10:30:13.930Z,100476.63
2022-12-23T10:32:59.487Z,100474.47
2022-12-23T10:35:44.254Z,100477.19
2022-12-23T10:38:31.929Z,100480.69
2022-12-23T10:41:11.064Z,100469.06
2022-12-23T10:43:51.926Z,100464.22
2022-12-23T10:47:14.312Z,100463.13
2022-12-23T10:50:22.866Z,100460.44
2022-12-23T10:53:39.433Z,100455.56
2022-12-23T10:56:20.551Z,100458.28
2022-12-23T10:58:55.351Z,100455.56
2022-12-23T11:01:27.220Z,100446.38
2022-12-23T11:04:32.914Z,100440.97
2022-12-23T11:07:26.472Z,100438.28
2022-12-23T11:09:50.940Z,100432.59
2022-12-23T11:12:42.631Z,100429.63
2022-12-23T11:15:30.895Z,100416.91
2022-12-23T11:18:03.529Z,100420.44
2022-12-23T11:20:35.664Z,100416.91
2022-12-23T11:23:28.453Z,100421.50
2022-12-23T11:26:12.656Z,100423.13
2022-12-23T11:28:50.010Z,100428.00
2022-12-23T11:31:26.975Z,100418.28
2022-12-23T11:34:02.282Z,100404.75
2022-12-23T11:36:31.001Z,100407.47
2022-12-23T11:39:19.557Z,100393.41
2022-12-23T11:41:50.232Z,100386.91
2022-12-23T11:44:40.028Z,100374.19
2022-12-23T11:47:59.366Z,100360.13
2022-12-23T11:50:29.196Z,100345.81
2022-12-23T11:53:21.029Z,100338.50
2022-12-23T11:55:57.501Z,100337.72
2022-12-23T11:58:25.345Z,100333.91
2022-12-23T12:00:58.013Z,100319.31
2022-12-23T12:03:43.837Z,100314.69
2022-12-23T12:06:14.875Z,100313.91
2022-12-23T12:08:41.952Z,100307.41
2022-12-23T12:11:16.745Z,100299.31
2022-12-23T12:13:48.874Z,100293.91
2022-12-23T12:16:45.875Z,100295.78
2022-12-23T12:19:24.209Z,100294.97
2022-12-23T12:21:54.864Z,100288.50
2022-12-23T12:24:27.435Z,100284.41
2022-12-23T12:27:00.853Z,100288.50
2022-12-23T12:29:48.689Z,100290.09
2022-12-23T12:32:33.228Z,100273.06
2022-12-23T12:35:05.840Z,100258.75
2022-12-23T12:38:07.094Z,100253.03
2022-12-23T12:40:42.514Z,100229.78
2022-12-23T12:43:30.917Z,100234.13
2022-12-23T12:46:20.354Z,100225.22
2022-12-23T12:49:19.064Z,100223.03
2022-12-23T12:52:02.456Z,100214.94
2022-12-23T12:54:52.420Z,100206.00
2022-12-23T12:57:23.986Z,100198.16
2022-12-23T13:00:05.654Z,100191.94
2022-12-23T13:03:03.695Z,100191.13
2022-12-23T13:05:59.835Z,100191.94
2022-12-23T13:08:46.172Z,100179.22
2022-12-23T13:11:28.502Z,100171.38
2022-12-23T13:14:21.678Z,100164.88
2022-12-23T13:17:08.222Z,100170.28
2022-12-23T13:19:46.886Z,100157.06
2022-12-23T13:22:17.424Z,100169.50
2022-12-23T13:25:12.373Z,100166.25
2022-12-23T13:27:52.952Z,100172.47
2022-12-23T13:30:23.593Z,100167.88
2022-12-23T13:32:52.825Z,100163.28
2022-12-23T13:35:37.535Z,100152.19
2022-12-23T13:38:29.642Z,100152.19
2022-12-23T13:41:25.287Z,100163.53
2022-12-23T13:43:59.363Z,100155.69
2022-12-23T13:46:25.803Z,100159.47
2022-12-23T13:49:23.781Z,100164.09
2022-12-23T13:52:09.618Z,100147.88
2022-12-23T13:54:55.141Z,100134.59
2022-12-23T13:57:30.377Z,100133.00
2022-12-23T14:00:05.351Z,100118.13
2022-12-23T14:02:35.995Z,100106.78
2022-12-23T14:05:05.436Z,100104.31
2022-12-23T14:07:33.656Z,100096.50
2022-12-23T14:10:11.429Z,100086.47
2022-12-23T14:12:40.579Z,100071.88
2022-12-23T14:15:28.650Z,100061.88
2022-12-23T14:18:44.286Z,100074.31
2022-12-23T14:21:19.379Z,100067.84
2022-12-23T14:24:20.627Z,100069.44
2022-12-23T14:27:05.952Z,100076.47
2022-12-23T14:29:46.096Z,100065.38
2022-12-23T14:32:21.975Z,100062.94
2022-12-23T14:35:24.912Z,100052.66
2022-12-23T14:38:16.104Z,100054.84
2022-12-23T14:40:42.387Z,100059.97
2022-12-23T14:43:51.238Z,100065.66
2022-12-23T14:46:35.637Z,100066.75
2022-12-23T14:49:36.895Z,100070.25
2022-12-23T14:51:51.640Z,100076.19
2022-12-23T14:54:37.196Z,100085.38
2022-12-23T14:57:17.398Z,100087.00
2022-12-23T14:59:57.638Z,100081.31
2022-12-23T15:02:33.683Z,100071.59
2022-12-23T15:05:00.703Z,100063.75
2022-12-23T15:07:32.560Z,100062.66
2022-12-23T15:10:08.716Z,100065.91
2022-12-23T15:12:39.746Z,100068.63
2022-12-23T15:15:17.385Z,100059.72
2022-12-23T15:17:43.972Z,100055.94
2022-12-23T15:20:10.334Z,100050.78
2022-12-23T15:22:38.389Z,100048.91
2022-12-23T15:25:18.220Z,100044.03
2022-12-23T15:27:44.692Z,100047.84
2022-12-23T15:30:14.809Z,100054.88
2022-12-23T15:32:43.137Z,100051.06
2022-12-23T15:35:14.789Z,100047.84
2022-12-23T15:37:41.324Z,100051.63
2022-12-23T15:40:23.413Z,100035.41
2022-12-23T15:42:49.906Z,100030.00
2022-12-23T15:45:37.763Z,100049.19
2022-12-23T15:48:06.417Z,100046.78
2022-12-23T15:50:41.674Z,100030.03
2022-12-23T15:53:09.856Z,100030.56
2022-12-23T15:55:40.566Z,100041.38
2022-12-23T15:58:21.843Z,100044.34
2022-12-23T16:00:57.367Z,100057.59
2022-12-23T16:03:31.808Z,100059.22
2022-12-23T16:06:22.718Z,100051.63
2022-12-23T16:09:00.909Z,100057.56
2022-12-23T16:12:04.064Z,100067.84
2022-12-23T16:14:50.085Z,100081.38
2022-12-23T16:20:39.765Z,100072.44
2022-12-23T16:23:10.917Z,100070.81
2022-12-23T16:25:38.772Z,100073.25
2022-12-23T16:28:22.921Z,100057.81
2022-12-23T16:30:52.901Z,100055.13
2022-12-23T16:33:41.723Z,100045.13
2022-12-23T16:36:36.556Z,100045.66
2022-12-23T16:39:24.114Z,100054.88
2022-12-23T16:41:59.881Z,100049.44
2022-12-23T16:44:34.539Z,100062.97
2022-12-23T16:47:07.538Z,100062.97
2022-12-23T16:49:44.267Z,100062.69
2022-12-23T16:52:14.135Z,100066.22
2022-12-23T16:54:42.441Z,100068.91
2022-12-23T16:57:10.274Z,100069.72
2022-12-23T16:59:37.532Z,100063.50
2022-12-23T17:02:04.249Z,100067.28
2022-12-23T17:04:30.903Z,100073.50
2022-12-23T17:06:57.257Z,100072.69
2022-12-23T17:09:23.617Z,100074.59
2022-12-23T17:11:53.261Z,100073.78
2022-12-23T17:14:23.144Z,100083.78
2022-12-23T17:16:50.972Z,100085.41
2022-12-23T17:19:23.334Z,100084.59
2022-12-23T17:21:58.370Z,100078.91
2022-12-23T17:24:26.888Z,100078.38
2022-12-23T17:26:55.146Z,100075.41
2022-12-23T17:29:21.579Z,100081.91
2022-12-23T17:31:50.066Z,100096.50
2022-12-23T17:34:20.145Z,100095.69
2022-12-23T17:36:50.360Z,100088.41
2022-12-23T17:39:20.267Z,100080.28
2022-12-23T17:41:47.151Z,100075.97
2022-12-23T17:44:16.124Z,100084.59
2022-12-23T17:46:42.968Z,100079.72
2022-12-23T17:49:09.431Z,100083.75
2022-12-23T17:51:35.966Z,100078.63
2022-12-23T17:54:04.557Z,100085.09
2022-12-23T17:56:31.113Z,100082.09
2022-12-23T17:58:57.493Z,100078.03
2022-12-23T18:01:26.448Z,100076.94
2022-12-23T18:03:53.713Z,100083.41
2022-12-23T18:06:21.921Z,100083.41
2022-12-23T18:08:48.763Z,100085.56
2022-12-23T18:11:33.816Z,100085.28
2022-12-23T18:14:01.284Z,100097.97
2022-12-23T18:16:27.709Z,100093.09
2022-12-23T18:18:54.102Z,100093.63
2022-12-23T18:21:23.542Z,100100.09
2022-12-23T18:23:51.210Z,100097.91
2022-12-23T18:26:23.267Z,100099.53
2022-12-23T18:28:51.267Z,100101.41
2022-12-23T18:31:27.615Z,100114.66
2022-12-23T18:33:55.241Z,100114.09
2022-12-23T18:36:42.038Z,100118.16
2022-12-23T18:39:11.409Z,100125.97
2022-12-23T18:41:37.785Z,100122.19
2022-12-23T18:44:17.346Z,100114.59
2022-12-23T18:46:57.178Z,100127.03
2022-12-23T18:49:25.641Z,100132.97
2022-12-23T18:51:52.014Z,100134.91
2022-12-23T18:54:18.387Z,100154.38
2022-12-23T18:56:49.184Z,100145.16
2022-12-23T18:59:42.520Z,100144.88
2022-12-23T19:02:14.223Z,100151.91
2022-12-23T19:04:45.834Z,100156.22
2022-12-23T19:07:12.296Z,100149.72
2022-12-23T19:09:40.703Z,100151.63
2022-12-23T19:12:17.302Z,100151.91
2022-12-23T19:14:46.219Z,100157.84
2022-12-23T19:17:12.594Z,100151.63
2022-12-23T19:19:46.244Z,100161.34
2022-12-23T19:22:15.570Z,100154.84
2022-12-23T19:25:03.858Z,100150.25
2022-12-23T19:27:29.773Z,100147.81
2022-12-23T19:30:18.051Z,100166.50
2022-12-23T19:32:44.887Z,100164.06
2022-12-23T19:35:16.484Z,100175.72
2022-12-23T19:38:02.501Z,100175.72
2022-12-23T19:40:55.469Z,100181.13
2022-12-23T19:43:27.170Z,100179.50
2022-12-23T19:46:02.404Z,100190.34
2022-12-23T19:49:17.434Z,100192.75
2022-12-23T19:52:03.678Z,100198.16
2022-12-23T19:54:30.077Z,100200.06
2022-12-23T19:56:56.494Z,100197.38
2022-12-23T19:59:35.083Z,100198.97
2022-12-23T20:02:27.299Z,100223.88
2022-12-23T20:05:14.076Z,100220.09
2022-12-23T20:08:11.449Z,100219.00
2022-12-23T20:10:39.922Z,100230.91
2022-12-23T20:13:08.999Z,100237.94
2022-12-23T20:15:36.449Z,100231.44
2022-12-23T20:18:04.179Z,100228.75
2022-12-23T20:21:09.237Z,100234.16
2022-12-23T20:23:35.784Z,100233.31
2022-12-23T20:26:03.591Z,100249.31
2022-12-23T20:28:39.345Z,100252.03
2022-12-23T20:31:31.466Z,100252.03
2022-12-23T20:33:58.630Z,100257.44
2022-12-23T20:36:47.185Z,100260.13
2022-12-23T20:39:21.753Z,100265.03
2022-12-23T20:41:48.209Z,100260.41
2022-12-23T20:44:35.763Z,100277.47
2022-12-23T20:47:06.321Z,100274.75
2022-12-23T20:49:34.107Z,100279.09
2022-12-23T20:52:26.475Z,100279.09
2022-12-23T20:54:55.310Z,100289.09
2022-12-23T20:57:35.926Z,100296.97
2022-12-23T21:00:07.022Z,100296.97
2022-12-23T21:02:46.933Z,100313.75
2022-12-23T21:05:18.561Z,100314.81
2022-12-23T21:07:45.145Z,100313.75
2022-12-23T21:10:15.402Z,100323.47
2022-12-23T21:13:00.480Z,100327.28
2022-12-23T21:15:28.184Z,100325.66
2022-12-23T21:17:54.800Z,100334.03
2022-12-23T21:20:21.243Z,100327.81
2022-12-23T21:22:56.008Z,100339.44
2022-12-23T21:25:50.168Z,100337.56
2022-12-23T21:28:16.883Z,100352.19
2022-12-23T21:30:56.680Z,100347.88
2022-12-23T21:33:29.465Z,100350.56
2022-12-23T21:35:56.140Z,100359.78
2022-12-23T21:38:37.900Z,100357.88
2022-12-23T21:41:07.180Z,100364.91
2022-12-23T21:43:36.652Z,100366.81
2022-12-23T21:46:08.161Z,100367.06
2022-12-23T21:48:37.853Z,100369.00
2022-12-23T21:51:15.245Z,100385.22
2022-12-23T21:53:53.019Z,100385.22
2022-12-23T21:56:21.736Z,100389.28
2022-12-23T21:59:17.414Z,100381.44
2022-12-23T22:01:44.310Z,100389.28
2022-12-23T22:04:17.128Z,100400.41
2022-12-23T22:06:44.456Z,100402.28
2022-12-23T22:09:21.208Z,100408.53
2022-12-23T22:11:48.291Z,100406.91
2022-12-23T22:14:17.606Z,100415.31
2022-12-23T22:16:44.267Z,100414.47
2022-12-23T22:19:15.151Z,100429.09
2022-12-23T22:21:53.919Z,100435.06
2022-12-23T22:24:20.386Z,100437.22
2022-12-23T22:26:46.802Z,100442.09
2022-12-23T22:29:35.141Z,100446.19
2022-12-23T22:32:09.790Z,100451.31
2022-12-23T22:34:36.306Z,100460.50
2022-12-23T22:37:02.760Z,100460.78
2022-12-23T22:39:29.166Z,100459.97
2022-12-23T22:41:55.640Z,100470.25
2022-12-23T22:44:39.442Z,100486.47
2022-12-23T22:47:19.127Z,100483.22
2022-12-23T22:49:45.658Z,100487.03
2022-12-23T22:52:14.283Z,100489.72
2022-12-23T22:54:40.848Z,100486.47
2022-12-23T22:57:07.437Z,100491.88
2022-12-23T22:59:40.886Z,100484.31
2022-12-23T23:02:19.693Z,100492.44
2022-12-23T23:04:47.273Z,100495.97
2022-12-23T23:07:13.724Z,100495.97
2022-12-23T23:09:41.272Z,100492.44
2022-12-23T23:12:10.073Z,100497.59
2022-12-23T23:14:54.769Z,100508.13
2022-12-23T23:17:26.290Z,100505.41
2022-12-23T23:19:55.117Z,100512.47
2022-12-23T23:22:33.845Z,100500.00
2022-12-23T23:25:00.264Z,100513.53
2022-12-23T23:27:26.735Z,100509.22
2022-12-23T23:29:53.190Z,100509.50
2022-12-23T23:32:19.692Z,100531.41
2022-12-23T23:34:46.099Z,100519.78
2022-12-23T23:37:15.681Z,100521.09
2022-12-23T23:39:42.151Z,100522.47
2022-12-23T23:42:16.909Z,100534.63
2022-12-23T23:44:47.525Z,100534.63
2022-12-23T23:47:34.891Z,100538.97
2022-12-23T23:50:01.929Z,100544.38
2022-12-23T23:52:29.046Z,100554.94
2022-12-23T23:54:55.532Z,100547.09
2022-12-23T23:57:22.399Z,100556.81
2022-12-23T23:59:49.783Z,100563.59
